createdAt,value
2018-05-18T00:01:17.742Z,11.30
2018-05-18T00:03:45.802Z,11.20
2018-05-18T00:06:14.599Z,11.10
2018-05-18T00:08:43.414Z,11.10
2018-05-18T00:11:11.449Z,11.10
2018-05-18T00:13:39.503Z,11.10
2018-05-18T00:16:07.562Z,11.10
2018-05-18T00:18:36.375Z,10.90
2018-05-18T00:21:04.431Z,10.90
2018-05-18T00:23:33.207Z,10.90
2018-05-18T00:26:01.219Z,10.80
2018-05-18T00:28:30.013Z,10.80
2018-05-18T00:30:58.779Z,10.70
2018-05-18T00:33:26.791Z,10.60
2018-05-18T00:35:55.548Z,10.70
2018-05-18T00:38:23.556Z,10.60
2018-05-18T00:40:51.654Z,10.60
2018-05-18T00:43:20.435Z,10.60
2018-05-18T00:45:48.440Z,10.50
2018-05-18T00:48:16.453Z,10.50
2018-05-18T00:50:44.462Z,10.50
2018-05-18T00:53:12.454Z,10.60
2018-05-18T00:55:41.386Z,10.60
2018-05-18T00:58:09.386Z,10.60
2018-05-18T01:00:38.162Z,10.50
2018-05-18T01:03:06.170Z,10.40
2018-05-18T01:05:34.935Z,10.40
2018-05-18T01:08:02.940Z,10.30
2018-05-18T01:10:31.710Z,10.30
2018-05-18T01:12:59.721Z,10.30
2018-05-18T01:15:28.980Z,10.20
2018-05-18T01:17:56.978Z,10.20
2018-05-18T01:20:24.986Z,10.20
2018-05-18T01:22:53.039Z,10.20
2018-05-18T01:25:21.063Z,10.20
2018-05-18T01:27:49.047Z,10.20
2018-05-18T01:30:17.067Z,10.30
2018-05-18T01:32:45.067Z,10.20
2018-05-18T01:35:13.427Z,10.30
2018-05-18T01:37:41.431Z,10.20
2018-05-18T01:40:09.451Z,10.30
2018-05-18T01:42:37.460Z,10.20
2018-05-18T01:45:05.659Z,10.10
2018-05-18T01:47:34.211Z,10.00
2018-05-18T01:50:02.215Z,9.90
2018-05-18T01:52:30.229Z,9.90
2018-05-18T01:54:58.228Z,10.00
2018-05-18T01:57:26.237Z,9.90
2018-05-18T01:59:54.219Z,9.90
2018-05-18T02:02:22.280Z,9.90
2018-05-18T02:04:50.268Z,9.90
2018-05-18T02:07:18.276Z,9.90
2018-05-18T02:09:46.286Z,9.80
2018-05-18T02:12:14.275Z,9.80
2018-05-18T02:14:43.043Z,9.80
2018-05-18T02:17:11.043Z,9.70
2018-05-18T02:19:39.054Z,9.80
2018-05-18T02:22:07.056Z,9.80
2018-05-18T02:24:35.044Z,9.80
2018-05-18T02:27:03.047Z,9.80
2018-05-18T02:29:31.043Z,9.70
2018-05-18T02:31:59.044Z,9.70
2018-05-18T02:34:27.055Z,9.80
2018-05-18T02:36:55.053Z,9.80
2018-05-18T02:39:23.052Z,9.80
2018-05-18T02:41:51.067Z,9.80
2018-05-18T02:44:19.042Z,9.80
2018-05-18T02:46:47.052Z,9.80
2018-05-18T02:49:15.798Z,9.70
2018-05-18T02:51:43.811Z,9.70
2018-05-18T02:54:11.818Z,9.70
2018-05-18T02:56:40.583Z,9.80
2018-05-18T02:59:08.590Z,9.70
2018-05-18T03:01:37.355Z,9.80
2018-05-18T03:04:05.352Z,9.70
2018-05-18T03:06:33.475Z,9.80
2018-05-18T03:09:02.231Z,9.90
2018-05-18T03:11:30.344Z,9.80
2018-05-18T03:13:58.345Z,10.00
2018-05-18T03:16:27.106Z,9.90
2018-05-18T03:18:55.116Z,9.90
2018-05-18T03:21:24.067Z,9.90
2018-05-18T03:23:52.068Z,9.90
2018-05-18T03:26:20.058Z,9.90
2018-05-18T03:28:48.063Z,10.00
2018-05-18T03:31:16.055Z,9.90
2018-05-18T03:33:44.827Z,9.90
2018-05-18T03:36:12.832Z,9.90
2018-05-18T03:38:40.832Z,9.90
2018-05-18T03:41:08.842Z,9.90
2018-05-18T03:43:36.843Z,9.90
2018-05-18T03:46:04.859Z,10.00
2018-05-18T03:48:33.616Z,9.90
2018-05-18T03:51:01.640Z,9.90
2018-05-18T03:53:29.635Z,9.90
2018-05-18T03:55:58.456Z,9.90
2018-05-18T03:58:27.190Z,10.00
2018-05-18T04:00:55.250Z,9.90
2018-05-18T04:03:35.928Z,10.10
2018-05-18T04:06:15.884Z,10.10
2018-05-18T04:08:52.776Z,10.20
2018-05-18T04:11:20.779Z,10.20
2018-05-18T04:13:48.795Z,10.20
2018-05-18T04:16:16.795Z,10.10
2018-05-18T04:18:45.571Z,10.30
2018-05-18T04:21:13.571Z,10.20
2018-05-18T04:23:41.585Z,10.30
2018-05-18T04:26:10.351Z,10.30
2018-05-18T04:28:38.456Z,10.20
2018-05-18T04:31:07.230Z,10.20
2018-05-18T04:33:35.235Z,10.10
2018-05-18T04:36:04.101Z,10.40
2018-05-18T04:38:31.999Z,10.40
2018-05-18T04:41:00.007Z,10.40
2018-05-18T04:43:28.762Z,10.30
2018-05-18T04:45:56.785Z,10.30
2018-05-18T04:48:25.566Z,10.50
2018-05-18T04:50:53.663Z,10.50
2018-05-18T04:53:22.343Z,10.70
2018-05-18T04:55:50.335Z,10.60
2018-05-18T04:58:18.346Z,10.60
2018-05-18T05:00:47.107Z,10.80
2018-05-18T05:03:15.152Z,10.80
2018-05-18T05:05:43.162Z,10.80
2018-05-18T05:08:11.171Z,10.80
2018-05-18T05:10:39.184Z,10.80
2018-05-18T05:13:07.182Z,10.80
2018-05-18T05:15:35.453Z,11.00
2018-05-18T05:18:03.451Z,11.00
2018-05-18T05:20:31.462Z,11.10
2018-05-18T05:22:59.463Z,11.10
2018-05-18T05:25:27.476Z,11.10
2018-05-18T05:27:56.246Z,11.10
2018-05-18T05:30:24.260Z,11.00
2018-05-18T05:32:53.087Z,11.00
2018-05-18T05:35:21.827Z,11.10
2018-05-18T05:37:50.267Z,11.00
2018-05-18T05:40:18.342Z,11.10
2018-05-18T05:42:46.413Z,11.10
2018-05-18T05:45:14.346Z,11.20
2018-05-18T05:47:42.351Z,11.20
2018-05-18T05:50:10.357Z,11.20
2018-05-18T05:52:38.365Z,11.30
2018-05-18T05:55:06.455Z,11.30
2018-05-18T05:57:34.491Z,11.30
2018-05-18T06:00:02.504Z,11.40
2018-05-18T06:02:31.282Z,11.40
2018-05-18T06:04:59.383Z,11.40
2018-05-18T06:07:28.143Z,11.60
2018-05-18T06:09:56.155Z,11.60
2018-05-18T06:12:24.401Z,11.70
2018-05-18T06:14:52.331Z,11.80
2018-05-18T06:17:20.347Z,11.80
2018-05-18T06:19:48.334Z,11.90
2018-05-18T06:22:16.354Z,12.10
2018-05-18T06:24:44.356Z,12.20
2018-05-18T06:27:12.362Z,12.20
2018-05-18T06:29:41.134Z,12.40
2018-05-18T06:32:09.151Z,12.30
2018-05-18T06:34:37.191Z,12.40
2018-05-18T06:37:05.194Z,12.30
2018-05-18T06:39:33.215Z,12.40
2018-05-18T06:42:01.209Z,12.30
2018-05-18T06:44:30.219Z,12.40
2018-05-18T06:46:59.251Z,12.50
2018-05-18T06:49:27.254Z,12.40
2018-05-18T06:51:56.036Z,12.60
2018-05-18T06:54:24.044Z,12.50
2018-05-18T06:56:52.803Z,12.70
2018-05-18T06:59:21.316Z,12.60
2018-05-18T07:01:49.335Z,12.90
2018-05-18T07:04:18.087Z,13.00
2018-05-18T07:06:46.095Z,12.90
2018-05-18T07:09:14.089Z,12.90
2018-05-18T07:11:42.860Z,13.20
2018-05-18T07:14:11.151Z,13.10
2018-05-18T07:16:39.164Z,13.30
2018-05-18T07:19:07.927Z,13.40
2018-05-18T07:21:35.931Z,13.30
2018-05-18T07:24:03.948Z,13.40
2018-05-18T07:26:31.942Z,13.40
2018-05-18T07:28:59.960Z,13.40
2018-05-18T07:31:27.958Z,13.50
2018-05-18T07:33:55.962Z,13.60
2018-05-18T07:36:24.732Z,13.70
2018-05-18T07:38:52.735Z,13.70
2018-05-18T07:41:21.524Z,14.10
2018-05-18T07:43:49.567Z,14.10
2018-05-18T07:46:18.793Z,14.10
2018-05-18T07:48:46.788Z,14.10
2018-05-18T07:51:14.807Z,14.00
2018-05-18T07:53:43.589Z,13.90
2018-05-18T07:56:11.602Z,13.80
2018-05-18T07:58:40.609Z,13.70
2018-05-18T08:01:09.555Z,13.90
2018-05-18T08:03:37.570Z,13.90
2018-05-18T08:06:05.568Z,14.20
2018-05-18T08:08:34.347Z,14.50
2018-05-18T08:11:02.439Z,14.50
2018-05-18T08:13:30.422Z,14.60
2018-05-18T08:15:58.434Z,14.60
2018-05-18T08:18:26.452Z,14.80
2018-05-18T08:20:54.459Z,14.80
2018-05-18T08:26:13.767Z,14.80
2018-05-18T08:28:53.619Z,14.80
2018-05-18T08:31:21.647Z,14.80
2018-05-18T08:33:50.415Z,15.10
2018-05-18T08:36:18.436Z,15.00
2018-05-18T08:38:47.202Z,15.10
2018-05-18T08:41:15.216Z,15.00
2018-05-18T08:43:43.986Z,15.10
2018-05-18T08:46:12.003Z,15.00
2018-05-18T08:48:40.768Z,15.00
2018-05-18T08:51:09.550Z,15.00
2018-05-18T08:53:37.567Z,14.70
2018-05-18T08:56:06.335Z,15.30
2018-05-18T08:58:34.341Z,15.30
2018-05-18T09:01:02.335Z,15.40
2018-05-18T09:03:30.343Z,15.30
2018-05-18T09:05:58.347Z,15.40
2018-05-18T09:08:26.368Z,15.60
2018-05-18T09:10:54.379Z,15.70
2018-05-18T09:13:23.158Z,16.10
2018-05-18T09:15:52.687Z,16.30
2018-05-18T09:18:20.680Z,16.20
2018-05-18T09:20:49.742Z,16.80
2018-05-18T09:23:17.748Z,16.70
2018-05-18T09:25:45.768Z,16.60
2018-05-18T09:28:13.778Z,16.60
2018-05-18T09:30:41.787Z,16.20
2018-05-18T09:33:09.811Z,16.20
2018-05-18T09:35:38.600Z,16.60
2018-05-18T09:38:07.387Z,17.00
2018-05-18T09:40:35.401Z,17.00
2018-05-18T09:43:03.407Z,17.10
2018-05-18T09:45:31.427Z,17.10
2018-05-18T09:47:59.431Z,16.60
2018-05-18T09:50:28.213Z,16.90
2018-05-18T09:52:56.224Z,16.80
2018-05-18T09:55:25.104Z,17.30
2018-05-18T09:57:53.011Z,17.30
2018-05-18T10:00:21.028Z,17.70
2018-05-18T10:02:49.043Z,17.70
2018-05-18T10:05:17.070Z,17.50
2018-05-18T10:07:45.091Z,17.60
2018-05-18T10:10:13.108Z,17.60
2018-05-18T10:12:41.880Z,17.90
2018-05-18T10:15:09.898Z,17.80
2018-05-18T10:17:38.683Z,17.90
2018-05-18T10:20:08.333Z,18.10
2018-05-18T10:22:37.309Z,18.20
2018-05-18T10:25:05.323Z,18.10
2018-05-18T10:27:33.522Z,18.50
2018-05-18T10:30:01.531Z,18.70
2018-05-18T10:32:29.551Z,18.40
2018-05-18T10:34:57.553Z,17.80
2018-05-18T10:37:26.331Z,17.50
2018-05-18T10:39:54.354Z,17.40
2018-05-18T10:42:22.363Z,17.70
2018-05-18T10:44:50.358Z,18.20
2018-05-18T10:47:18.378Z,18.30
2018-05-18T10:49:47.155Z,17.70
2018-05-18T10:52:15.163Z,17.60
2018-05-18T10:54:43.943Z,18.30
2018-05-18T10:57:11.963Z,18.30
2018-05-18T10:59:40.754Z,18.00
2018-05-18T11:02:09.510Z,17.80
2018-05-18T11:04:37.531Z,17.70
2018-05-18T11:07:06.307Z,18.30
2018-05-18T11:09:34.327Z,18.30
2018-05-18T11:12:02.342Z,18.50
2018-05-18T11:14:30.358Z,18.30
2018-05-18T11:16:58.370Z,18.30
2018-05-18T11:19:27.142Z,19.00
2018-05-18T11:21:55.151Z,18.90
2018-05-18T11:24:23.936Z,19.10
2018-05-18T11:26:52.758Z,18.90
2018-05-18T11:29:21.523Z,18.80
2018-05-18T11:31:49.545Z,18.80
2018-05-18T11:34:17.543Z,19.40
2018-05-18T11:36:45.558Z,19.70
2018-05-18T11:39:13.674Z,20.30
2018-05-18T11:41:42.348Z,20.10
2018-05-18T11:44:10.367Z,20.10
2018-05-18T11:46:39.131Z,19.70
2018-05-18T11:49:07.161Z,19.60
2018-05-18T11:51:35.173Z,19.40
2018-05-18T11:54:03.183Z,19.70
2018-05-18T11:56:31.199Z,20.00
2018-05-18T11:58:59.961Z,20.30
2018-05-18T12:01:27.982Z,20.30
2018-05-18T12:03:56.755Z,20.80
2018-05-18T12:06:24.779Z,20.70
2018-05-18T12:08:52.787Z,20.60
2018-05-18T12:11:20.812Z,20.50
2018-05-18T12:13:48.806Z,21.00
2018-05-18T12:16:18.615Z,21.30
2018-05-18T12:18:46.640Z,21.30
2018-05-18T12:21:14.650Z,21.50
2018-05-18T12:23:42.675Z,21.40
2018-05-18T12:26:10.765Z,21.60
2018-05-18T12:28:38.767Z,21.90
2018-05-18T12:31:07.547Z,21.50
2018-05-18T12:33:36.315Z,21.60
2018-05-18T12:36:04.335Z,21.60
2018-05-18T12:38:33.118Z,21.50
2018-05-18T12:41:01.149Z,21.50
2018-05-18T12:43:29.154Z,21.70
2018-05-18T12:45:57.170Z,21.90
2018-05-18T12:48:25.171Z,21.50
2018-05-18T12:50:53.959Z,20.70
2018-05-18T12:53:21.967Z,20.60
2018-05-18T12:55:49.999Z,20.60
2018-05-18T12:58:18.010Z,21.20
2018-05-18T13:00:46.022Z,21.50
2018-05-18T13:03:14.808Z,22.60
2018-05-18T13:05:43.596Z,22.50
2018-05-18T13:08:11.673Z,22.50
2018-05-18T13:10:39.623Z,22.90
2018-05-18T13:13:07.651Z,23.20
2018-05-18T13:15:35.661Z,23.00
2018-05-18T13:18:03.647Z,23.30
2018-05-18T13:20:31.684Z,23.40
2018-05-18T13:22:59.761Z,23.70
2018-05-18T13:25:28.486Z,23.80
2018-05-18T13:27:56.455Z,23.70
2018-05-18T13:30:24.466Z,23.40
2018-05-18T13:32:53.262Z,23.10
2018-05-18T13:35:22.029Z,23.40
2018-05-18T13:37:50.035Z,23.40
2018-05-18T13:40:18.807Z,23.00
2018-05-18T13:42:46.815Z,23.00
2018-05-18T13:45:15.588Z,23.50
2018-05-18T13:47:43.597Z,23.40
2018-05-18T13:50:11.596Z,22.40
2018-05-18T13:52:40.379Z,23.30
2018-05-18T13:55:09.168Z,23.80
2018-05-18T13:57:37.179Z,23.80
2018-05-18T14:00:05.940Z,24.30
2018-05-18T14:02:33.947Z,24.20
2018-05-18T14:05:02.715Z,24.40
2018-05-18T14:07:30.727Z,24.40
2018-05-18T14:09:58.726Z,24.70
2018-05-18T14:12:26.743Z,24.70
2018-05-18T14:14:55.652Z,24.40
2018-05-18T14:17:23.669Z,24.80
2018-05-18T14:19:51.685Z,25.00
2018-05-18T14:22:20.445Z,25.30
2018-05-18T14:24:48.457Z,25.30
2018-05-18T14:27:16.459Z,25.40
2018-05-18T14:29:44.468Z,24.80
2018-05-18T14:32:12.487Z,25.30
2018-05-18T14:34:40.491Z,25.40
2018-05-18T14:37:09.281Z,25.70
2018-05-18T14:39:37.283Z,25.60
2018-05-18T14:42:06.058Z,25.60
2018-05-18T14:44:34.065Z,25.60
2018-05-18T14:47:02.822Z,26.10
2018-05-18T14:49:30.828Z,26.10
2018-05-18T14:51:58.835Z,26.10
2018-05-18T14:54:27.607Z,26.10
2018-05-18T14:56:55.619Z,26.00
2018-05-18T14:59:23.622Z,25.70
2018-05-18T15:01:51.626Z,26.10
2018-05-18T15:04:19.623Z,26.00
2018-05-18T15:06:47.634Z,25.80
2018-05-18T15:09:16.391Z,26.00
2018-05-18T15:11:44.399Z,25.90
2018-05-18T15:14:12.414Z,26.40
2018-05-18T15:16:41.175Z,25.90
2018-05-18T15:19:09.199Z,25.90
2018-05-18T15:21:37.959Z,25.80
2018-05-18T15:24:05.975Z,25.70
2018-05-18T15:26:34.923Z,26.30
2018-05-18T15:29:02.915Z,26.30
2018-05-18T15:31:30.934Z,26.70
2018-05-18T15:33:58.931Z,26.30
2018-05-18T15:36:27.716Z,26.50
2018-05-18T15:38:56.483Z,26.80
2018-05-18T15:41:24.489Z,26.80
2018-05-18T15:43:52.490Z,26.80
2018-05-18T15:46:21.497Z,27.00
2018-05-18T15:48:49.492Z,26.90
2018-05-18T15:51:18.251Z,25.90
2018-05-18T15:53:46.263Z,25.80
2018-05-18T15:56:15.032Z,25.50
2018-05-18T15:58:43.049Z,25.50
2018-05-18T16:01:11.834Z,26.20
2018-05-18T16:03:39.855Z,26.20
2018-05-18T16:06:07.856Z,26.60
2018-05-18T16:08:35.867Z,27.20
2018-05-18T16:11:03.891Z,27.30
2018-05-18T16:13:32.643Z,27.10
2018-05-18T16:16:00.659Z,27.10
2018-05-18T16:18:28.663Z,27.00
2018-05-18T16:20:57.436Z,26.60
2018-05-18T16:23:25.431Z,26.60
2018-05-18T16:25:53.478Z,26.60
2018-05-18T16:28:21.443Z,26.50
2018-05-18T16:30:49.468Z,25.40
2018-05-18T16:33:17.479Z,25.40
2018-05-18T16:35:45.489Z,25.60
2018-05-18T16:38:13.524Z,25.10
2018-05-18T16:40:42.282Z,24.40
2018-05-18T16:43:10.304Z,24.40
2018-05-18T16:45:39.194Z,24.50
2018-05-18T16:48:08.719Z,24.30
2018-05-18T16:50:36.719Z,24.20
2018-05-18T16:53:05.507Z,23.90
2018-05-18T16:55:33.495Z,23.90
2018-05-18T16:58:02.360Z,23.70
2018-05-18T17:00:30.443Z,23.70
2018-05-18T17:02:58.427Z,23.30
2018-05-18T17:05:27.215Z,23.00
2018-05-18T17:07:55.338Z,23.00
2018-05-18T17:10:23.368Z,23.50
2018-05-18T17:12:51.367Z,23.80
2018-05-18T17:15:19.423Z,23.90
2018-05-18T17:17:47.495Z,24.00
2018-05-18T17:20:16.585Z,23.60
2018-05-18T17:22:45.789Z,23.50
2018-05-18T17:25:13.792Z,23.50
2018-05-18T17:27:41.798Z,23.60
2018-05-18T17:30:09.807Z,24.30
2018-05-18T17:32:37.825Z,24.00
2018-05-18T17:35:05.837Z,23.10
2018-05-18T17:37:33.849Z,22.80
2018-05-18T17:40:01.879Z,22.10
2018-05-18T17:42:31.416Z,20.70
2018-05-18T17:44:59.407Z,20.70
2018-05-18T17:47:27.406Z,20.10
2018-05-18T17:49:55.458Z,19.60
2018-05-18T17:52:24.247Z,18.40
2018-05-18T17:54:53.023Z,18.10
2018-05-18T17:57:21.031Z,18.00
2018-05-18T17:59:49.027Z,18.00
2018-05-18T18:02:17.807Z,17.70
2018-05-18T18:04:46.528Z,17.60
2018-05-18T18:07:15.298Z,17.20
2018-05-18T18:09:43.302Z,17.20
2018-05-18T18:12:12.091Z,17.20
2018-05-18T18:14:41.600Z,16.90
2018-05-18T18:17:10.593Z,16.90
2018-05-18T18:19:38.605Z,16.70
2018-05-18T18:22:06.613Z,16.50
2018-05-18T18:24:35.408Z,16.30
2018-05-18T18:27:04.203Z,16.30
2018-05-18T18:29:32.217Z,16.20
2018-05-18T18:32:00.967Z,15.80
2018-05-18T18:34:29.014Z,15.80
2018-05-18T18:36:57.016Z,15.80
2018-05-18T18:39:25.495Z,15.70
2018-05-18T18:41:53.520Z,15.60
2018-05-18T18:44:21.539Z,15.60
2018-05-18T18:46:49.551Z,15.60
2018-05-18T18:49:17.548Z,15.60
2018-05-18T18:51:45.579Z,15.50
2018-05-18T18:54:13.610Z,15.30
2018-05-18T18:56:41.621Z,15.30
2018-05-18T18:59:10.397Z,15.20
2018-05-18T19:01:38.413Z,15.10
2018-05-18T19:04:07.190Z,15.10
2018-05-18T19:06:35.187Z,15.10
2018-05-18T19:09:03.993Z,15.00
2018-05-18T19:11:32.751Z,14.90
2018-05-18T19:14:00.773Z,14.80
2018-05-18T19:16:28.791Z,14.80
2018-05-18T19:18:57.043Z,14.60
2018-05-18T19:21:25.036Z,14.40
2018-05-18T19:23:53.791Z,14.50
2018-05-18T19:26:21.804Z,14.40
2018-05-18T19:28:49.786Z,14.50
2018-05-18T19:31:17.799Z,14.30
2018-05-18T19:33:45.807Z,14.30
2018-05-18T19:36:13.811Z,14.30
2018-05-18T19:38:41.834Z,14.30
2018-05-18T19:41:10.600Z,14.20
2018-05-18T19:43:38.625Z,14.20
2018-05-18T19:46:06.591Z,14.20
2018-05-18T19:48:35.394Z,14.00
2018-05-18T19:51:04.167Z,14.10
2018-05-18T19:53:32.195Z,14.00
2018-05-18T19:56:00.972Z,13.90
2018-05-18T19:58:28.984Z,13.80
2018-05-18T20:00:56.999Z,13.80
2018-05-18T20:03:24.990Z,13.80
2018-05-18T20:05:52.999Z,13.70
2018-05-18T20:08:21.028Z,13.80
2018-05-18T20:10:49.947Z,13.70
2018-05-18T20:13:17.958Z,13.50
2018-05-18T20:15:45.934Z,13.50
2018-05-18T20:18:13.962Z,13.60
2018-05-18T20:20:42.725Z,13.50
2018-05-18T20:23:10.716Z,13.40
2018-05-18T20:25:38.726Z,13.50
2018-05-18T20:28:06.779Z,13.50
2018-05-18T20:30:34.807Z,13.40
2018-05-18T20:33:02.822Z,13.10
2018-05-18T20:35:30.811Z,13.10
2018-05-18T20:37:58.819Z,13.00
2018-05-18T20:40:26.807Z,13.00
2018-05-18T20:42:55.587Z,12.90
2018-05-18T20:45:23.607Z,12.90
2018-05-18T20:47:52.375Z,12.90
2018-05-18T20:50:20.400Z,12.90
2018-05-18T20:52:48.387Z,12.90
2018-05-18T20:55:16.403Z,12.70
2018-05-18T20:57:44.403Z,12.70
2018-05-18T21:00:12.407Z,12.50
2018-05-18T21:02:41.409Z,12.40
2018-05-18T21:05:09.414Z,12.50
2018-05-18T21:07:38.185Z,12.50
2018-05-18T21:10:06.166Z,12.40
2018-05-18T21:12:34.176Z,12.30
2018-05-18T21:15:02.936Z,12.30
2018-05-18T21:17:30.948Z,12.30
2018-05-18T21:19:59.710Z,12.20
2018-05-18T21:22:27.715Z,12.10
2018-05-18T21:24:55.744Z,12.00
2018-05-18T21:27:23.735Z,12.20
2018-05-18T21:29:51.749Z,12.10
2018-05-18T21:32:19.734Z,12.20
2018-05-18T21:34:47.747Z,12.00
2018-05-18T21:37:16.531Z,12.20
2018-05-18T21:39:44.527Z,12.10
2018-05-18T21:42:12.572Z,12.00
2018-05-18T21:44:40.591Z,12.00
2018-05-18T21:47:09.372Z,11.90
2018-05-18T21:49:37.367Z,11.80
2018-05-18T21:52:05.374Z,11.90
2018-05-18T21:54:34.182Z,11.80
2018-05-18T21:57:02.949Z,11.80
2018-05-18T21:59:30.962Z,11.70
2018-05-18T22:01:58.960Z,11.80
2018-05-18T22:04:26.968Z,11.80
2018-05-18T22:06:54.967Z,11.90
2018-05-18T22:09:22.979Z,12.00
2018-05-18T22:11:51.966Z,11.90
2018-05-18T22:14:19.963Z,11.90
2018-05-18T22:16:48.742Z,11.40
2018-05-18T22:19:18.255Z,11.40
2018-05-18T22:21:46.271Z,11.40
2018-05-18T22:24:15.064Z,11.40
2018-05-18T22:26:43.074Z,11.30
2018-05-18T22:29:11.848Z,11.40
2018-05-18T22:31:40.888Z,11.30
2018-05-18T22:34:08.931Z,11.20
2018-05-18T22:36:36.927Z,11.40
2018-05-18T22:39:05.707Z,11.40
2018-05-18T22:41:33.707Z,11.40
2018-05-18T22:44:02.484Z,11.30
2018-05-18T22:46:30.485Z,11.30
2018-05-18T22:48:58.496Z,11.20
2018-05-18T22:51:26.507Z,11.30
2018-05-18T22:53:54.523Z,11.30
2018-05-18T22:56:22.506Z,11.30
2018-05-18T22:58:50.510Z,11.20
2018-05-18T23:01:19.274Z,11.10
2018-05-18T23:03:47.283Z,11.10
2018-05-18T23:06:16.055Z,11.20
2018-05-18T23:08:44.154Z,11.10
2018-05-18T23:11:12.851Z,11.00
2018-05-18T23:13:40.843Z,10.90
2018-05-18T23:16:09.630Z,10.80
2018-05-18T23:18:37.632Z,10.80
2018-05-18T23:21:05.639Z,10.80
2018-05-18T23:23:33.631Z,10.90
2018-05-18T23:26:01.652Z,10.90
2018-05-18T23:28:29.671Z,10.80
2018-05-18T23:30:58.444Z,10.60
2018-05-18T23:33:26.447Z,10.60
2018-05-18T23:35:55.224Z,10.60
2018-05-18T23:38:23.229Z,10.60
2018-05-18T23:40:51.233Z,10.50
2018-05-18T23:43:19.251Z,10.50
2018-05-18T23:45:47.259Z,10.40
2018-05-18T23:48:15.267Z,10.40
2018-05-18T23:50:43.291Z,10.50
2018-05-18T23:53:11.287Z,10.50
2018-05-18T23:55:40.316Z,10.50
2018-05-18T23:58:08.333Z,10.60
